createdAt,value
2022-11-28T00:02:09.062Z,97.27
2022-11-28T00:04:35.949Z,97.08
2022-11-28T00:07:02.747Z,97.12
2022-11-28T00:09:29.686Z,97.10
2022-11-28T00:11:56.434Z,96.95
2022-11-28T00:14:23.127Z,96.81
2022-11-28T00:16:49.826Z,97.10
2022-11-28T00:19:16.541Z,97.30
2022-11-28T00:21:43.293Z,96.97
2022-11-28T00:24:10.035Z,97.08
2022-11-28T00:26:38.678Z,97.10
2022-11-28T00:29:05.729Z,96.97
2022-11-28T00:31:42.091Z,97.18
2022-11-28T00:34:10.116Z,97.19
2022-11-28T00:36:36.881Z,97.20
2022-11-28T00:39:04.236Z,97.39
2022-11-28T00:41:31.248Z,97.24
2022-11-28T00:43:58.037Z,97.15
2022-11-28T00:46:25.060Z,97.05
2022-11-28T00:48:51.843Z,97.37
2022-11-28T00:51:20.492Z,97.33
2022-11-28T00:53:48.408Z,97.31
2022-11-28T00:56:17.427Z,97.54
2022-11-28T00:58:44.133Z,97.38
2022-11-28T01:01:13.759Z,97.38
2022-11-28T01:03:40.923Z,97.12
2022-11-28T01:06:07.952Z,97.18
2022-11-28T01:08:34.710Z,97.10
2022-11-28T01:11:01.531Z,97.23
2022-11-28T01:13:28.163Z,97.16
2022-11-28T01:15:55.492Z,97.08
2022-11-28T01:18:22.307Z,97.02
2022-11-28T01:20:49.024Z,97.15
2022-11-28T01:23:16.852Z,97.19
2022-11-28T01:25:43.521Z,96.97
2022-11-28T01:28:10.205Z,97.09
2022-11-28T01:30:36.916Z,96.90
2022-11-28T01:33:03.594Z,97.05
2022-11-28T01:35:30.277Z,96.91
2022-11-28T01:37:56.988Z,96.86
2022-11-28T01:40:23.678Z,96.63
2022-11-28T01:42:50.406Z,96.71
2022-11-28T01:45:29.178Z,96.44
2022-11-28T01:47:57.469Z,96.46
2022-11-28T01:50:24.326Z,96.29
2022-11-28T01:52:52.856Z,96.39
2022-11-28T01:55:21.864Z,96.17
2022-11-28T01:57:48.567Z,96.36
2022-11-28T02:00:17.601Z,96.17
2022-11-28T02:03:00.853Z,96.07
2022-11-28T02:05:27.546Z,96.22
2022-11-28T02:07:54.402Z,96.10
2022-11-28T02:10:25.710Z,95.95
2022-11-28T02:12:59.802Z,95.91
2022-11-28T02:15:44.683Z,95.82
2022-11-28T02:18:11.370Z,95.67
2022-11-28T02:21:00.293Z,95.76
2022-11-28T02:23:42.228Z,95.86
2022-11-28T02:26:50.461Z,95.88
2022-11-28T02:29:46.622Z,95.83
2022-11-28T02:32:38.441Z,96.22
2022-11-28T02:35:05.210Z,96.59
2022-11-28T02:37:37.096Z,96.72
2022-11-28T02:40:09.104Z,96.94
2022-11-28T02:42:41.924Z,96.92
2022-11-28T02:45:15.102Z,97.02
2022-11-28T02:47:48.352Z,96.57
2022-11-28T02:50:21.252Z,96.40
2022-11-28T02:52:53.279Z,96.21
2022-11-28T02:55:19.971Z,96.00
2022-11-28T02:57:48.459Z,95.97
2022-11-28T03:00:43.758Z,96.22
2022-11-28T03:03:48.438Z,96.48
2022-11-28T03:06:24.307Z,96.88
2022-11-28T03:08:57.647Z,96.74
2022-11-28T03:11:30.276Z,96.75
2022-11-28T03:14:01.326Z,96.74
2022-11-28T03:16:30.247Z,96.66
2022-11-28T03:19:07.502Z,96.56
2022-11-28T03:21:45.315Z,96.60
2022-11-28T03:24:23.008Z,96.50
2022-11-28T03:26:53.816Z,96.30
2022-11-28T03:29:32.961Z,96.54
2022-11-28T03:32:08.196Z,96.64
2022-11-28T03:34:37.860Z,96.49
2022-11-28T03:37:08.567Z,96.25
2022-11-28T03:39:40.510Z,96.35
2022-11-28T03:42:12.248Z,96.25
2022-11-28T03:44:44.639Z,96.06
2022-11-28T03:47:11.679Z,96.19
2022-11-28T03:49:40.695Z,96.14
2022-11-28T03:52:11.856Z,95.99
2022-11-28T03:55:14.139Z,96.02
2022-11-28T03:57:46.666Z,96.12
2022-11-28T04:00:13.979Z,95.71
2022-11-28T04:02:49.131Z,95.80
2022-11-28T04:05:46.331Z,95.61
2022-11-28T04:08:20.897Z,95.48
2022-11-28T04:11:08.992Z,95.39
2022-11-28T04:13:38.214Z,95.43
2022-11-28T04:16:06.727Z,95.42
2022-11-28T04:19:00.071Z,95.40
2022-11-28T04:21:30.895Z,95.23
2022-11-28T04:24:01.478Z,95.27
2022-11-28T04:26:34.619Z,95.32
2022-11-28T04:29:04.367Z,94.96
2022-11-28T04:31:31.421Z,95.19
2022-11-28T04:34:00.111Z,95.08
2022-11-28T04:36:26.860Z,95.26
2022-11-28T04:38:56.792Z,95.46
2022-11-28T04:41:43.434Z,95.43
2022-11-28T04:44:13.793Z,95.45
2022-11-28T04:46:43.204Z,95.47
2022-11-28T04:49:10.158Z,95.61
2022-11-28T04:51:44.880Z,95.68
2022-11-28T04:54:19.043Z,95.69
2022-11-28T04:56:48.126Z,96.00
2022-11-28T04:59:14.828Z,95.89
2022-11-28T05:01:41.923Z,96.00
2022-11-28T05:04:08.760Z,95.68
2022-11-28T05:06:36.090Z,95.57
2022-11-28T05:09:03.545Z,95.56
2022-11-28T05:11:30.552Z,95.48
2022-11-28T05:13:57.256Z,95.62
2022-11-28T05:16:24.166Z,95.41
2022-11-28T05:18:50.916Z,95.41
2022-11-28T05:21:17.636Z,95.28
2022-11-28T05:23:44.631Z,95.13
2022-11-28T05:26:19.302Z,95.22
2022-11-28T05:28:47.219Z,95.08
2022-11-28T05:31:14.356Z,95.28
2022-11-28T05:33:41.161Z,94.89
2022-11-28T05:36:12.783Z,94.86
2022-11-28T05:38:40.459Z,94.92
2022-11-28T05:41:07.291Z,94.82
2022-11-28T05:43:34.008Z,94.92
2022-11-28T05:46:00.810Z,95.17
2022-11-28T05:48:27.517Z,95.29
2022-11-28T05:50:54.245Z,95.50
2022-11-28T05:53:21.048Z,95.59
2022-11-28T05:55:47.710Z,95.62
2022-11-28T05:58:14.439Z,95.80
2022-11-28T06:00:41.169Z,95.56
2022-11-28T06:03:08.197Z,95.49
2022-11-28T06:05:42.704Z,95.33
2022-11-28T06:08:13.442Z,95.36
2022-11-28T06:10:40.465Z,95.39
2022-11-28T06:13:07.192Z,95.14
2022-11-28T06:15:37.998Z,95.14
2022-11-28T06:18:05.823Z,95.08
2022-11-28T06:20:34.860Z,95.23
2022-11-28T06:23:01.547Z,94.98
2022-11-28T06:25:28.510Z,94.46
2022-11-28T06:27:55.240Z,94.42
2022-11-28T06:30:21.968Z,94.26
2022-11-28T06:32:48.691Z,94.36
2022-11-28T06:35:15.546Z,94.50
2022-11-28T06:37:42.184Z,94.44
2022-11-28T06:40:08.975Z,94.34
2022-11-28T06:42:36.331Z,94.48
2022-11-28T06:45:09.664Z,94.57
2022-11-28T06:47:36.400Z,94.45
2022-11-28T06:50:03.302Z,94.34
2022-11-28T06:52:29.902Z,94.35
2022-11-28T06:54:56.601Z,94.17
2022-11-28T06:57:23.407Z,94.10
2022-11-28T06:59:50.721Z,93.96
2022-11-28T07:02:17.571Z,94.14
2022-11-28T07:04:44.402Z,94.21
2022-11-28T07:07:16.074Z,93.97
2022-11-28T07:09:43.897Z,94.10
2022-11-28T07:12:10.947Z,93.91
2022-11-28T07:14:38.259Z,94.01
2022-11-28T07:17:05.086Z,93.94
2022-11-28T07:19:31.761Z,93.98
2022-11-28T07:21:58.519Z,93.98
2022-11-28T07:24:25.316Z,93.83
2022-11-28T07:26:52.119Z,93.49
2022-11-28T07:29:19.036Z,93.74
2022-11-28T07:31:45.914Z,93.74
2022-11-28T07:34:12.827Z,93.66
2022-11-28T07:36:39.471Z,93.76
2022-11-28T07:39:08.645Z,93.52
2022-11-28T07:41:35.429Z,93.47
2022-11-28T07:44:02.921Z,93.81
2022-11-28T07:46:30.455Z,93.80
2022-11-28T07:48:57.260Z,93.84
2022-11-28T07:51:25.933Z,93.88
2022-11-28T07:53:52.898Z,93.93
2022-11-28T07:56:21.725Z,93.95
2022-11-28T07:58:48.565Z,93.75
2022-11-28T08:01:18.150Z,93.75
2022-11-28T08:03:44.966Z,93.71
2022-11-28T08:06:11.714Z,93.82
2022-11-28T08:08:38.517Z,93.74
2022-11-28T08:11:06.407Z,93.69
2022-11-28T08:13:33.362Z,93.51
2022-11-28T08:16:04.912Z,93.61
2022-11-28T08:18:31.690Z,93.52
2022-11-28T08:21:09.679Z,93.52
2022-11-28T08:23:36.494Z,93.39
2022-11-28T08:26:03.812Z,93.64
2022-11-28T08:29:33.011Z,93.44
2022-11-28T08:31:59.853Z,93.48
2022-11-28T08:34:26.447Z,93.33
2022-11-28T08:36:53.336Z,93.47
2022-11-28T08:39:24.789Z,93.45
2022-11-28T08:41:53.554Z,93.83
2022-11-28T08:44:20.294Z,93.72
2022-11-28T08:46:47.048Z,93.86
2022-11-28T08:49:13.759Z,94.07
2022-11-28T08:51:40.565Z,93.93
2022-11-28T08:54:07.147Z,94.06
2022-11-28T08:56:34.030Z,93.99
2022-11-28T08:59:01.363Z,94.08
2022-11-28T09:01:28.310Z,94.14
2022-11-28T09:03:55.561Z,94.18
2022-11-28T09:06:22.763Z,94.18
2022-11-28T09:08:49.659Z,94.09
2022-11-28T09:11:17.400Z,94.16
2022-11-28T09:13:44.541Z,94.13
2022-11-28T09:16:11.616Z,94.03
2022-11-28T09:18:38.766Z,93.99
2022-11-28T09:21:09.372Z,93.83
2022-11-28T09:23:37.145Z,93.79
2022-11-28T09:26:20.237Z,93.76
2022-11-28T09:28:47.313Z,93.54
2022-11-28T09:31:14.639Z,93.38
2022-11-28T09:33:41.546Z,93.36
2022-11-28T09:36:09.189Z,93.56
2022-11-28T09:38:36.204Z,93.56
2022-11-28T09:41:03.125Z,93.50
2022-11-28T09:43:42.746Z,93.40
2022-11-28T09:46:12.405Z,93.46
2022-11-28T09:48:45.733Z,93.41
2022-11-28T09:51:28.504Z,93.30
2022-11-28T09:54:08.013Z,93.31
2022-11-28T16:17:50.087Z,100.00
2022-11-28T16:20:49.424Z,100.00
2022-11-28T16:23:21.044Z,100.00
2022-11-28T16:26:21.250Z,100.00
2022-11-28T16:29:16.491Z,100.00
2022-11-28T16:31:44.128Z,100.00
2022-11-28T16:34:14.117Z,100.00
2022-11-28T16:36:41.212Z,100.00
2022-11-28T16:39:10.912Z,100.00
2022-11-28T16:41:54.938Z,100.00
2022-11-28T16:44:23.666Z,100.00
2022-11-28T16:46:54.714Z,100.00
2022-11-28T16:49:59.044Z,100.00
2022-11-28T16:52:25.802Z,100.00
2022-11-28T16:54:56.097Z,100.00
2022-11-28T16:57:23.018Z,100.00
2022-11-28T16:59:52.728Z,100.00
2022-11-28T17:02:23.831Z,100.00
2022-11-28T17:04:51.809Z,100.00
2022-11-28T17:07:24.161Z,100.00
2022-11-28T17:09:50.968Z,100.00
2022-11-28T17:12:28.716Z,100.00
2022-11-28T17:14:55.716Z,100.00
2022-11-28T17:17:23.379Z,100.00
2022-11-28T17:19:50.227Z,100.00
2022-11-28T17:22:18.786Z,100.00
2022-11-28T17:24:45.592Z,100.00
2022-11-28T17:27:12.407Z,100.00
2022-11-28T17:29:39.223Z,100.00
2022-11-28T17:32:06.004Z,100.00
2022-11-28T17:34:33.605Z,100.00
2022-11-28T17:37:00.831Z,100.00
2022-11-28T17:39:28.078Z,100.00
2022-11-28T17:41:56.902Z,100.00
2022-11-28T17:44:34.589Z,100.00
2022-11-28T17:47:01.987Z,100.00
2022-11-28T17:49:29.243Z,100.00
2022-11-28T17:51:56.617Z,100.00
2022-11-28T17:54:24.305Z,100.00
2022-11-28T17:56:52.574Z,100.00
2022-11-28T17:59:20.714Z,100.00
2022-11-28T18:01:47.847Z,100.00
2022-11-28T18:04:14.580Z,100.00
2022-11-28T18:06:45.569Z,100.00
2022-11-28T18:09:12.627Z,100.00
2022-11-28T18:11:40.407Z,100.00
2022-11-28T18:14:07.249Z,100.00
2022-11-28T18:16:35.960Z,100.00
2022-11-28T18:19:03.241Z,100.00
2022-11-28T18:21:29.965Z,100.00
2022-11-28T18:23:57.010Z,100.00
2022-11-28T18:26:24.187Z,100.00
2022-11-28T18:28:51.753Z,100.00
2022-11-28T18:31:25.982Z,100.00
2022-11-28T18:33:56.153Z,100.00
2022-11-28T18:36:26.903Z,100.00
2022-11-28T22:03:25.722Z,100.00
2022-11-28T22:05:53.293Z,100.00
2022-11-28T22:08:20.591Z,100.00
2022-11-28T22:10:47.315Z,100.00
2022-11-28T22:13:14.541Z,100.00
2022-11-28T22:15:43.212Z,100.00
2022-11-28T22:18:10.742Z,100.00
2022-11-28T22:20:43.555Z,100.00
2022-11-28T22:23:11.280Z,100.00
2022-11-28T22:25:38.033Z,100.00
2022-11-28T22:28:04.809Z,100.00
2022-11-28T22:30:31.641Z,100.00
2022-11-28T22:32:58.388Z,100.00
2022-11-28T22:35:25.162Z,100.00
2022-11-28T22:37:53.853Z,100.00
2022-11-28T22:40:21.055Z,100.00
2022-11-28T22:42:48.123Z,100.00
2022-11-28T22:45:14.947Z,100.00
2022-11-28T22:47:42.416Z,100.00
2022-11-28T22:50:09.212Z,100.00
2022-11-28T22:52:36.067Z,100.00
2022-11-28T22:55:02.948Z,100.00
2022-11-28T22:57:29.951Z,100.00
2022-11-28T22:59:56.923Z,100.00
2022-11-28T23:02:23.986Z,100.00
2022-11-28T23:04:51.147Z,100.00
2022-11-28T23:07:17.979Z,100.00
2022-11-28T23:09:44.802Z,100.00
2022-11-28T23:12:11.687Z,100.00
2022-11-28T23:14:38.367Z,100.00
2022-11-28T23:17:05.524Z,100.00
2022-11-28T23:19:32.458Z,100.00
2022-11-28T23:21:59.509Z,100.00
2022-11-28T23:24:26.420Z,100.00
2022-11-28T23:26:53.253Z,100.00
2022-11-28T23:29:20.039Z,100.00
2022-11-28T23:31:48.022Z,100.00
2022-11-28T23:34:14.832Z,100.00
2022-11-28T23:36:44.196Z,100.00
2022-11-28T23:39:19.018Z,100.00
2022-11-28T23:41:45.840Z,100.00
2022-11-28T23:44:12.626Z,100.00
2022-11-28T23:46:39.535Z,100.00
2022-11-28T23:49:06.562Z,100.00
2022-11-28T23:51:33.360Z,100.00
2022-11-28T23:53:59.956Z,100.00
2022-11-28T23:56:28.812Z,100.00
2022-11-28T23:58:55.913Z,100.00
